createdAt,value
2022-11-22T00:00:54.907Z,38.28
2022-11-22T00:03:22.946Z,38.35
2022-11-22T00:05:50.856Z,38.23
2022-11-22T00:08:19.051Z,38.22
2022-11-22T00:10:48.917Z,38.29
2022-11-22T00:13:17.321Z,38.28
2022-11-22T00:15:46.968Z,38.29
2022-11-22T00:18:14.874Z,38.12
2022-11-22T00:20:42.784Z,38.24
2022-11-22T00:23:10.727Z,38.10
2022-11-22T00:25:38.625Z,38.17
2022-11-22T00:28:06.567Z,38.25
2022-11-22T00:30:34.503Z,38.17
2022-11-22T00:33:03.802Z,38.26
2022-11-22T00:35:31.996Z,38.00
2022-11-22T00:37:59.972Z,38.13
2022-11-22T00:40:28.018Z,38.07
2022-11-22T00:42:55.923Z,38.18
2022-11-22T00:45:23.907Z,38.10
2022-11-22T00:47:52.123Z,38.10
2022-11-22T00:50:21.485Z,38.21
2022-11-22T00:52:49.420Z,38.11
2022-11-22T00:55:17.461Z,38.17
2022-11-22T00:57:45.385Z,38.01
2022-11-22T01:00:14.380Z,38.13
2022-11-22T01:02:42.296Z,38.26
2022-11-22T01:05:10.790Z,38.07
2022-11-22T01:07:40.202Z,37.90
2022-11-22T01:10:08.824Z,38.10
2022-11-22T01:12:37.103Z,38.16
2022-11-22T01:15:06.086Z,38.08
2022-11-22T01:17:33.992Z,38.18
2022-11-22T01:20:01.958Z,38.13
2022-11-22T01:22:29.946Z,38.12
2022-11-22T01:24:59.299Z,38.05
2022-11-22T01:27:27.256Z,37.97
2022-11-22T01:29:55.138Z,38.04
2022-11-22T01:32:23.101Z,38.04
2022-11-22T01:34:51.007Z,37.99
2022-11-22T01:37:18.956Z,38.10
2022-11-22T01:39:46.896Z,37.94
2022-11-22T01:42:16.203Z,38.07
2022-11-22T01:44:45.523Z,38.03
2022-11-22T01:47:15.234Z,38.06
2022-11-22T01:49:47.350Z,37.99
2022-11-22T01:52:19.621Z,37.96
2022-11-22T01:54:57.844Z,37.90
2022-11-22T01:57:31.098Z,38.02
2022-11-22T02:00:02.938Z,37.91
2022-11-22T02:02:30.863Z,37.90
2022-11-22T02:05:03.775Z,38.17
2022-11-22T02:07:38.155Z,37.94
2022-11-22T02:10:06.779Z,37.92
2022-11-22T02:12:37.324Z,37.97
2022-11-22T02:15:06.320Z,37.95
2022-11-22T02:17:34.272Z,37.90
2022-11-22T02:20:02.247Z,37.98
2022-11-22T02:22:34.798Z,37.96
2022-11-22T02:25:09.458Z,37.88
2022-11-22T02:27:38.760Z,38.00
2022-11-22T02:30:08.018Z,37.83
2022-11-22T02:32:36.190Z,37.96
2022-11-22T02:35:04.248Z,37.96
2022-11-22T02:37:34.348Z,37.92
2022-11-22T02:40:06.539Z,37.82
2022-11-22T02:42:35.326Z,37.82
2022-11-22T02:45:05.379Z,37.96
2022-11-22T02:47:33.566Z,37.79
2022-11-22T02:50:01.460Z,37.90
2022-11-22T02:52:30.934Z,37.81
2022-11-22T02:54:58.906Z,37.77
2022-11-22T02:57:26.915Z,37.74
2022-11-22T02:59:54.823Z,37.76
2022-11-22T03:02:24.136Z,37.85
2022-11-22T03:04:52.048Z,37.71
2022-11-22T03:07:20.081Z,37.78
2022-11-22T03:09:47.998Z,37.82
2022-11-22T03:12:15.936Z,37.83
2022-11-22T03:14:43.983Z,37.70
2022-11-22T03:17:11.922Z,37.75
2022-11-22T03:19:41.499Z,37.77
2022-11-22T03:22:11.459Z,37.71
2022-11-22T03:24:39.667Z,37.64
2022-11-22T03:27:07.634Z,37.74
2022-11-22T03:29:35.640Z,37.68
2022-11-22T03:32:03.604Z,37.79
2022-11-22T03:34:31.549Z,37.68
2022-11-22T03:37:00.913Z,37.75
2022-11-22T03:39:28.987Z,37.93
2022-11-22T03:41:57.160Z,37.85
2022-11-22T03:44:25.190Z,37.72
2022-11-22T03:46:53.284Z,37.67
2022-11-22T03:49:21.390Z,37.74
2022-11-22T03:51:49.300Z,37.68
2022-11-22T03:54:18.724Z,37.65
2022-11-22T03:56:46.654Z,37.67
2022-11-22T03:59:14.537Z,37.73
2022-11-22T04:01:42.553Z,37.78
2022-11-22T04:04:11.704Z,37.66
2022-11-22T04:06:40.154Z,37.64
2022-11-22T04:09:08.213Z,37.71
2022-11-22T04:11:37.603Z,37.65
2022-11-22T04:14:22.928Z,37.75
2022-11-22T04:16:50.832Z,37.77
2022-11-22T04:19:18.764Z,37.72
2022-11-22T04:21:45.679Z,37.73
2022-11-22T04:24:31.633Z,37.73
2022-11-22T04:27:00.978Z,37.52
2022-11-22T04:29:29.303Z,37.64
2022-11-22T04:32:14.710Z,37.70
2022-11-22T04:34:42.720Z,37.60
2022-11-22T04:37:10.605Z,37.59
2022-11-22T04:39:38.726Z,37.65
2022-11-22T04:42:25.568Z,37.65
2022-11-22T04:44:53.496Z,37.80
2022-11-22T04:47:38.795Z,37.64
2022-11-22T04:50:29.084Z,37.71
2022-11-22T04:52:57.688Z,37.72
2022-11-22T04:55:26.030Z,37.60
2022-11-22T04:57:59.500Z,37.67
2022-11-22T05:00:28.787Z,37.59
2022-11-22T05:02:57.238Z,37.60
2022-11-22T05:05:26.047Z,37.58
2022-11-22T05:07:53.949Z,37.61
2022-11-22T05:10:26.407Z,37.62
2022-11-22T05:12:56.768Z,37.71
2022-11-22T05:15:24.695Z,37.75
2022-11-22T05:17:52.659Z,37.84
2022-11-22T05:20:20.615Z,37.74
2022-11-22T05:23:06.483Z,37.84
2022-11-22T05:25:34.466Z,37.92
2022-11-22T05:28:03.795Z,37.78
2022-11-22T05:30:31.694Z,37.90
2022-11-22T05:32:59.632Z,37.83
2022-11-22T05:35:27.547Z,37.74
2022-11-22T05:37:57.501Z,37.68
2022-11-22T05:40:26.015Z,37.83
2022-11-22T05:42:54.065Z,37.78
2022-11-22T05:45:23.421Z,37.68
2022-11-22T05:47:51.401Z,37.73
2022-11-22T05:50:19.550Z,37.77
2022-11-22T05:52:47.435Z,37.87
2022-11-22T05:55:15.457Z,37.75
2022-11-22T05:57:43.350Z,37.72
2022-11-22T06:00:12.074Z,37.84
2022-11-22T06:02:41.475Z,37.67
2022-11-22T06:05:10.181Z,37.85
2022-11-22T06:07:38.279Z,37.71
2022-11-22T06:10:06.728Z,37.77
2022-11-22T06:12:34.668Z,37.68
2022-11-22T06:15:03.529Z,37.65
2022-11-22T06:17:31.503Z,37.79
2022-11-22T06:20:05.832Z,37.67
2022-11-22T06:22:34.232Z,37.81
2022-11-22T06:25:02.230Z,37.66
2022-11-22T06:27:30.133Z,37.70
2022-11-22T06:29:58.179Z,37.64
2022-11-22T06:32:26.136Z,37.79
2022-11-22T06:34:54.041Z,37.71
2022-11-22T06:37:23.476Z,37.69
2022-11-22T06:39:51.427Z,37.65
2022-11-22T06:42:19.371Z,37.77
2022-11-22T06:44:47.303Z,37.68
2022-11-22T06:47:15.268Z,37.89
2022-11-22T06:49:43.307Z,37.88
2022-11-22T06:52:11.264Z,37.75
2022-11-22T06:54:40.536Z,37.68
2022-11-22T06:57:08.500Z,37.76
2022-11-22T06:59:36.842Z,37.73
2022-11-22T07:02:06.790Z,37.88
2022-11-22T07:04:35.160Z,37.68
2022-11-22T07:07:03.084Z,37.81
2022-11-22T07:09:31.309Z,37.70
2022-11-22T07:12:00.999Z,37.77
2022-11-22T07:14:28.911Z,37.79
2022-11-22T07:16:56.795Z,37.82
2022-11-22T07:19:24.725Z,37.80
2022-11-22T07:21:52.622Z,37.87
2022-11-22T07:24:20.590Z,37.91
2022-11-22T07:26:48.493Z,37.80
2022-11-22T07:29:17.793Z,37.82
2022-11-22T07:31:46.453Z,37.88
2022-11-22T07:34:14.583Z,37.72
2022-11-22T07:36:42.483Z,37.81
2022-11-22T07:39:12.563Z,37.97
2022-11-22T07:41:40.539Z,37.83
2022-11-22T07:44:08.503Z,37.76
2022-11-22T07:46:37.891Z,37.86
2022-11-22T07:49:05.800Z,37.93
2022-11-22T07:51:34.000Z,37.72
2022-11-22T07:54:01.920Z,37.89
2022-11-22T07:56:29.779Z,37.81
2022-11-22T07:58:57.705Z,37.89
2022-11-22T08:01:25.660Z,37.78
2022-11-22T08:03:55.033Z,37.86
2022-11-22T08:06:22.958Z,37.92
2022-11-22T08:08:50.900Z,37.98
2022-11-22T08:11:18.840Z,37.81
2022-11-22T08:13:46.781Z,37.83
2022-11-22T08:16:16.785Z,37.80
2022-11-22T08:18:48.751Z,37.88
2022-11-22T08:21:19.619Z,37.89
2022-11-22T08:23:48.893Z,37.81
2022-11-22T08:26:21.108Z,37.91
2022-11-22T08:28:49.065Z,37.90
2022-11-22T08:31:19.782Z,37.91
2022-11-22T08:33:48.375Z,37.83
2022-11-22T08:36:17.726Z,37.98
2022-11-22T08:38:46.015Z,37.93
2022-11-22T08:41:13.992Z,37.82
2022-11-22T08:43:42.196Z,38.07
2022-11-22T08:46:10.133Z,37.86
2022-11-22T08:48:39.343Z,38.02
2022-11-22T08:51:09.996Z,37.91
2022-11-22T08:53:40.748Z,37.84
2022-11-22T08:56:10.745Z,37.96
2022-11-22T08:58:39.150Z,37.84
2022-11-22T09:01:07.705Z,37.94
2022-11-22T09:03:36.755Z,37.91
2022-11-22T09:09:03.272Z,37.81
2022-11-22T09:11:36.971Z,37.84
2022-11-22T09:14:05.280Z,37.98
2022-11-22T09:16:33.821Z,37.82
2022-11-22T09:19:01.790Z,37.96
2022-11-22T09:21:29.752Z,37.98
2022-11-22T09:23:59.207Z,38.02
2022-11-22T09:26:27.271Z,37.91
2022-11-22T09:28:55.177Z,37.97
2022-11-22T09:31:24.276Z,37.95
2022-11-22T09:33:52.617Z,37.97
2022-11-22T09:36:22.545Z,37.89
2022-11-22T09:38:52.248Z,37.91
2022-11-22T09:41:35.299Z,37.92
2022-11-22T09:44:13.724Z,37.88
2022-11-22T09:46:48.916Z,37.92
2022-11-22T09:49:29.618Z,37.95
2022-11-22T09:52:05.319Z,37.84
2022-11-22T09:54:42.403Z,37.90
2022-11-22T09:57:17.601Z,37.96
2022-11-22T09:59:48.308Z,37.86
2022-11-22T10:02:22.513Z,37.99
2022-11-22T10:04:56.108Z,37.90
2022-11-22T10:07:30.633Z,38.03
2022-11-22T10:10:05.189Z,37.96
2022-11-22T10:12:41.380Z,37.91
2022-11-22T10:15:20.489Z,38.02
2022-11-22T10:17:55.180Z,38.00
2022-11-22T10:20:26.070Z,37.90
2022-11-22T10:22:54.217Z,37.90
2022-11-22T10:25:24.351Z,37.99
2022-11-22T10:28:00.874Z,37.93
2022-11-22T10:30:37.088Z,38.02
2022-11-22T10:33:14.719Z,37.99
2022-11-22T10:36:07.780Z,37.78
2022-11-22T10:38:58.148Z,37.87
2022-11-22T10:41:41.074Z,37.78
2022-11-22T10:44:21.803Z,37.96
2022-11-22T10:47:00.829Z,37.92
2022-11-22T10:49:45.557Z,37.84
2022-11-22T10:52:26.267Z,37.97
2022-11-22T10:55:03.844Z,37.99
2022-11-22T10:57:38.834Z,37.96
2022-11-22T11:00:24.513Z,38.23
2022-11-22T11:03:10.261Z,37.91
2022-11-22T11:06:15.156Z,37.99
2022-11-22T11:09:12.175Z,37.88
2022-11-22T11:11:28.447Z,37.91
2022-11-22T11:13:59.786Z,37.89
2022-11-22T11:16:34.021Z,38.15
2022-11-22T11:19:12.861Z,37.94
2022-11-22T11:21:40.784Z,37.90
2022-11-22T11:24:13.725Z,37.86
2022-11-22T11:26:43.040Z,37.90
2022-11-22T11:29:37.624Z,37.77
2022-11-22T11:32:09.961Z,38.03
2022-11-22T11:34:39.678Z,37.98
2022-11-22T11:37:13.711Z,37.98
2022-11-22T11:39:47.867Z,38.02
2022-11-22T11:42:24.937Z,37.86
2022-11-22T11:44:53.159Z,37.98
2022-11-22T11:47:34.074Z,37.98
2022-11-22T11:50:02.169Z,37.97
2022-11-22T11:52:31.696Z,37.88
2022-11-22T11:55:02.032Z,38.04
2022-11-22T11:57:31.887Z,38.01
2022-11-22T12:00:01.941Z,38.12
2022-11-22T12:02:37.331Z,38.02
2022-11-22T12:05:07.670Z,37.94
2022-11-22T12:07:44.864Z,37.95
2022-11-22T12:10:39.441Z,37.90
2022-11-22T12:13:15.065Z,38.02
2022-11-22T12:15:55.959Z,37.98
2022-11-22T12:18:40.175Z,37.92
2022-11-22T12:21:23.097Z,37.93
2022-11-22T12:24:19.510Z,38.04
2022-11-22T12:26:45.374Z,37.89
2022-11-22T12:29:14.786Z,38.08
2022-11-22T12:31:46.759Z,38.01
2022-11-22T12:34:25.739Z,37.88
2022-11-22T12:37:00.302Z,37.99
2022-11-22T12:39:30.163Z,37.91
2022-11-22T12:42:03.637Z,37.92
2022-11-22T12:44:38.118Z,38.01
2022-11-22T12:47:13.283Z,38.04
2022-11-22T12:49:47.012Z,37.92
2022-11-22T12:52:24.503Z,37.95
2022-11-22T12:55:01.981Z,37.86
2022-11-22T12:57:38.681Z,38.01
2022-11-22T13:00:14.468Z,38.00
2022-11-22T13:02:48.169Z,37.93
2022-11-22T13:05:21.848Z,38.22
2022-11-22T13:07:58.945Z,37.89
2022-11-22T13:10:37.478Z,37.95
2022-11-22T13:13:07.758Z,37.89
2022-11-22T13:15:40.738Z,37.96
2022-11-22T13:18:10.892Z,37.93
2022-11-22T13:20:46.460Z,37.96
2022-11-22T13:23:33.901Z,37.84
2022-11-22T13:26:13.405Z,37.99
2022-11-22T13:28:44.958Z,38.07
2022-11-22T13:31:19.079Z,38.01
2022-11-22T13:33:58.796Z,37.85
2022-11-22T13:36:39.352Z,37.96
2022-11-22T13:39:13.761Z,37.97
2022-11-22T13:41:51.257Z,38.06
2022-11-22T13:44:39.347Z,37.87
2022-11-22T13:47:41.332Z,37.88
2022-11-22T13:50:57.865Z,37.93
2022-11-22T13:53:30.078Z,38.10
2022-11-22T13:56:09.946Z,38.00
2022-11-22T13:58:52.656Z,37.90
2022-11-22T14:02:00.909Z,37.96
2022-11-22T14:04:36.283Z,38.05
2022-11-22T14:07:07.374Z,38.03
2022-11-22T14:09:40.476Z,38.02
2022-11-22T14:12:43.635Z,37.97
2022-11-22T14:15:23.211Z,37.96
2022-11-22T14:18:04.699Z,38.00
2022-11-22T14:20:49.845Z,37.77
2022-11-22T14:23:32.207Z,38.04
2022-11-22T14:26:15.987Z,37.99
2022-11-22T14:29:18.392Z,37.90
2022-11-22T14:31:54.323Z,37.88
2022-11-22T14:34:24.374Z,38.06
2022-11-22T14:37:24.915Z,37.96
2022-11-22T14:40:03.134Z,38.07
2022-11-22T14:42:53.304Z,37.91
2022-11-22T14:45:29.134Z,38.01
2022-11-22T14:48:04.511Z,37.99
2022-11-22T14:50:40.395Z,37.96
2022-11-22T14:53:21.133Z,38.01
2022-11-22T14:55:51.348Z,38.12
2022-11-22T14:58:24.728Z,37.97
2022-11-22T15:01:27.610Z,37.88
2022-11-22T15:09:10.453Z,37.88
2022-11-22T15:09:16.118Z,37.88
2022-11-22T15:10:31.678Z,37.93
2022-11-22T15:13:25.577Z,37.90
2022-11-22T15:59:26.241Z,37.92
2022-11-22T16:01:57.085Z,37.96
2022-11-22T16:04:29.829Z,38.03
2022-11-22T16:07:00.685Z,38.00
2022-11-22T16:09:35.687Z,37.92
2022-11-22T16:12:05.887Z,38.01
2022-11-22T16:14:52.986Z,37.85
2022-11-22T16:17:32.340Z,38.02
2022-11-22T16:20:31.094Z,37.95
2022-11-22T16:23:25.632Z,37.93
2022-11-22T16:26:00.184Z,38.14
2022-11-22T16:28:31.590Z,37.97
2022-11-22T16:31:01.655Z,38.02
2022-11-22T16:33:29.805Z,38.02
2022-11-22T16:36:00.809Z,37.98
2022-11-22T16:38:29.440Z,38.00
2022-11-22T16:40:59.830Z,38.19
2022-11-22T16:43:33.424Z,38.05
2022-11-22T16:46:01.573Z,38.14
2022-11-22T16:48:32.645Z,38.09
2022-11-22T16:51:04.770Z,38.08
2022-11-22T16:53:41.015Z,38.05
2022-11-22T16:56:17.904Z,38.01
2022-11-22T16:58:46.057Z,38.16
2022-11-22T17:01:16.357Z,38.09
2022-11-22T17:03:45.006Z,38.10
2022-11-22T17:06:18.776Z,38.02
2022-11-22T17:08:47.386Z,37.84
2022-11-22T17:11:17.756Z,38.06
2022-11-22T17:13:45.985Z,38.02
2022-11-22T17:16:14.900Z,38.01
2022-11-22T17:18:43.859Z,38.17
2022-11-22T17:21:17.874Z,37.89
2022-11-22T17:23:46.523Z,38.04
2022-11-22T17:26:14.730Z,37.98
2022-11-22T17:28:42.873Z,37.94
2022-11-22T17:31:13.785Z,38.07
2022-11-22T17:33:41.959Z,38.04
2022-11-22T17:36:22.784Z,38.08
2022-11-22T17:38:50.818Z,38.10
2022-11-22T17:41:18.751Z,38.03
2022-11-22T17:43:46.738Z,37.98
2022-11-22T17:46:14.727Z,38.07
2022-11-22T17:48:42.633Z,37.99
2022-11-22T17:51:12.721Z,38.07
2022-11-22T17:53:42.769Z,37.96
2022-11-22T17:56:11.940Z,38.05
2022-11-22T17:58:40.488Z,37.91
2022-11-22T18:01:10.856Z,38.11
2022-11-22T18:03:39.480Z,38.00
2022-11-22T18:06:08.320Z,37.97
2022-11-22T18:08:36.452Z,38.02
2022-11-22T18:11:06.224Z,38.04
2022-11-22T18:13:36.208Z,38.00
2022-11-22T18:16:07.741Z,38.04
2022-11-22T18:18:56.392Z,38.13
2022-11-22T18:21:26.175Z,38.08
2022-11-22T18:23:54.120Z,38.06
2022-11-22T18:26:38.730Z,38.24
2022-11-22T18:31:55.424Z,38.12
2022-11-22T18:34:23.938Z,38.09
2022-11-22T18:36:55.735Z,38.09
2022-11-22T18:39:25.594Z,38.07
2022-11-22T18:41:55.198Z,38.18
2022-11-22T18:44:23.153Z,38.09
2022-11-22T18:46:51.311Z,38.28
2022-11-22T18:49:19.224Z,37.98
2022-11-22T18:51:47.103Z,38.21
2022-11-22T18:54:15.115Z,38.14
2022-11-22T18:56:43.033Z,38.17
2022-11-22T18:59:13.566Z,38.06
2022-11-22T19:01:41.868Z,38.40
2022-11-22T19:04:13.764Z,38.24
2022-11-22T19:06:42.318Z,38.18
2022-11-22T19:09:11.243Z,38.15
2022-11-22T19:11:39.258Z,38.31
2022-11-22T19:14:07.456Z,38.33
2022-11-22T19:16:36.794Z,38.33
2022-11-22T19:19:04.995Z,38.31
2022-11-22T19:21:32.981Z,38.29
2022-11-22T19:24:00.953Z,38.37
2022-11-22T19:26:30.044Z,38.28
2022-11-22T19:29:02.491Z,38.28
2022-11-22T19:31:31.612Z,38.29
2022-11-22T19:34:01.320Z,38.19
2022-11-22T19:36:33.736Z,38.20
2022-11-22T19:39:03.769Z,38.24
2022-11-22T19:41:32.156Z,38.17
2022-11-22T19:44:00.581Z,38.45
2022-11-22T19:46:29.044Z,38.29
2022-11-22T19:48:58.944Z,38.34
2022-11-22T19:51:30.179Z,38.37
2022-11-22T19:53:59.984Z,38.32
2022-11-22T19:56:30.618Z,38.37
2022-11-22T19:58:59.950Z,38.33
2022-11-22T20:01:29.995Z,38.33
2022-11-22T20:04:00.389Z,38.32
2022-11-22T20:06:30.764Z,38.27
2022-11-22T20:09:02.921Z,38.43
2022-11-22T20:11:30.856Z,38.24
2022-11-22T20:13:59.136Z,38.30
2022-11-22T20:16:28.869Z,38.41
2022-11-22T20:18:57.981Z,38.47
2022-11-22T20:21:27.088Z,38.37
2022-11-22T20:23:56.868Z,38.42
2022-11-22T20:26:26.437Z,38.40
2022-11-22T20:28:59.531Z,38.43
2022-11-22T20:31:28.733Z,38.37
2022-11-22T20:33:57.377Z,38.39
2022-11-22T20:36:26.880Z,38.35
2022-11-22T20:38:56.982Z,38.32
2022-11-22T20:41:26.826Z,38.26
2022-11-22T20:43:55.498Z,38.31
2022-11-22T20:46:25.536Z,38.43
2022-11-22T20:48:58.743Z,38.40
2022-11-22T20:51:28.872Z,38.36
2022-11-22T20:53:58.563Z,38.60
2022-11-22T20:56:26.780Z,38.43
2022-11-22T20:58:54.960Z,38.55
2022-11-22T21:01:24.580Z,38.43
2022-11-22T21:03:53.558Z,38.47
2022-11-22T21:06:23.509Z,38.48
2022-11-22T21:08:51.445Z,38.50
2022-11-22T21:11:22.985Z,38.49
2022-11-22T21:13:52.039Z,38.44
2022-11-22T21:16:23.916Z,38.46
2022-11-22T21:18:53.622Z,38.44
2022-11-22T21:21:23.935Z,38.51
2022-11-22T21:23:53.460Z,38.46
2022-11-22T21:26:23.721Z,38.37
2022-11-22T21:28:52.734Z,38.44
2022-11-22T21:31:21.489Z,38.60
2022-11-22T21:33:50.867Z,38.39
2022-11-22T21:36:19.199Z,38.51
2022-11-22T21:38:47.335Z,38.47
2022-11-22T21:41:38.851Z,38.54
2022-11-22T21:44:06.863Z,38.45
2022-11-22T21:46:34.835Z,38.49
2022-11-22T21:49:02.854Z,38.44
2022-11-22T21:51:31.971Z,38.51
2022-11-22T21:54:00.873Z,38.59
2022-11-22T21:56:29.375Z,38.51
2022-11-22T21:58:57.775Z,38.44
2022-11-22T22:01:27.830Z,38.58
2022-11-22T22:03:55.858Z,38.59
2022-11-22T22:06:25.117Z,38.53
2022-11-22T22:08:53.150Z,38.59
2022-11-22T22:11:21.092Z,38.66
2022-11-22T22:13:49.081Z,38.52
2022-11-22T22:16:19.278Z,38.48
2022-11-22T22:18:48.858Z,38.51
2022-11-22T22:21:18.652Z,38.52
2022-11-22T22:23:47.227Z,38.53
2022-11-22T22:26:17.030Z,38.62
2022-11-22T22:28:46.154Z,38.60
2022-11-22T22:31:21.350Z,38.55
2022-11-22T22:33:52.141Z,38.54
2022-11-22T22:36:20.317Z,38.46
2022-11-22T22:38:48.432Z,38.50
2022-11-22T22:41:16.726Z,38.43
2022-11-22T22:43:46.820Z,38.46
2022-11-22T22:46:16.615Z,38.56
2022-11-22T22:48:45.032Z,38.45
2022-11-22T22:51:16.459Z,38.47
2022-11-22T22:53:45.458Z,38.58
2022-11-22T22:56:15.000Z,38.50
2022-11-22T22:58:43.226Z,38.61
2022-11-22T23:01:15.094Z,38.66
2022-11-22T23:03:43.227Z,38.47
2022-11-22T23:06:14.075Z,38.68
2022-11-22T23:08:45.730Z,38.64
2022-11-22T23:11:14.435Z,38.46
2022-11-22T23:13:43.600Z,38.62
2022-11-22T23:16:13.804Z,38.73
2022-11-22T23:18:43.813Z,38.55
2022-11-22T23:21:14.778Z,38.57
2022-11-22T23:23:42.861Z,38.61
2022-11-22T23:26:12.569Z,38.58
2022-11-22T23:28:40.831Z,38.62
2022-11-22T23:31:10.245Z,38.57
2022-11-22T23:33:38.304Z,38.69
2022-11-22T23:36:08.427Z,38.52
2022-11-22T23:38:38.225Z,38.77
2022-11-22T23:41:06.547Z,38.62
2022-11-22T23:43:34.478Z,38.61
2022-11-22T23:46:02.496Z,38.67
2022-11-22T23:48:30.435Z,38.81
2022-11-22T23:51:03.930Z,38.67
2022-11-22T23:53:31.880Z,38.70
2022-11-22T23:56:07.163Z,38.68
2022-11-22T23:58:35.456Z,38.62
